Wednesday, September 03, 2014
04:43 UTC
  |  Log In   |  Register Free
Airport Search:

Visalia Municipal Airport
(KVIS)

Visalia Municipal Airport Diagram
No Airport Diagram Available

FAA data valid effective July 24, 2014 until September 18, 2014 (unless otherwise noted).

 
 
 
 
 
 
 
 
 
 
 
 
 
 

Current Aviation Weather for Visalia Municipal Airport (KVIS)

The most recent METAR observation for KVIS was updated at: 0255 UTC
METAR Summary (Translated METAR)
KVIS
030255Z AUTO 00000KT 9SM CLR 32/13 A2967 RMK AO1 54000
KHJO
(11.4 nm SW from KVIS)
030153Z AUTO 32007KT 10SM CLR 37/07 A2966 RMK AO2 SLP043 T03670072
TAF Summary (Translated TAF)
KVIS
021720Z 0218/0318 VRB02KT P6SM SKC FM022100 29005KT P6SM SKC FM031200 VRB02KT P6SM SKC
  Airport Weather Conditions for KVIS

 Current Weather at VIS
88° F
Fair
Northwest winds at 5.8 mph
VIS NOAA Radar

Pressure: 29.67 in
Humidity: 35%
Wind: Northwest at 5.8 MPH (5 KT)
Dew Point: 57.2°F
Visibility: 10.00 mi


Airport Weather Forecast for KVIS

Translated METAR and TAF for KVIS
Translated METAR for KVIS (0436 UTC 03 September 2014)
found at http://aviationweather.gov/adds/metars/
 
METAR text: KVIS 030435Z AUTO 33005KT 10SM CLR 29/13 A2968 RMK AO1
Conditions at: KVIS (VISALIA MUNI , CA, US) observed 0435 UTC 03 September 2014
Temperature: 29.0°C (84°F)
Dewpoint: 13.0°C (55°F) [RH = 37%]
Pressure (altimeter): 29.68 inches Hg (1005.2 mb)
Winds: from the NNW (330 degrees) at 6 MPH (5 knots; 2.6 m/s)
Visibility: 10 or more miles (16+ km)
Ceiling: at least 12,000 feet AGL
Clouds: sky clear below 12,000 feet AGL
Weather: automated observation with no human augmentation;
there may or may not be significant weather present at this time
Translated TAF for KVIS
Forecast for: KVIS (VISALIA MUNI , CA, US)
TAF Text: KVIS 022320Z 0300/0324 28005KT P6SM SKC
Forecast period: 0000 to 1200 UTC 03 September 2014
Forecast type: FROM: standard forecast or significant change
Winds: from the W (280 degrees) at 6 MPH (5 knots; 2.6 m/s)
Visibility: 6 or more miles (10+ km)
Clouds: clear skies
Weather: no significant weather forecast for this period
TAF Text: FM031200 VRB02KT P6SM SKC
Forecast period: 1200 to 2200 UTC 03 September 2014
Forecast type: FROM: standard forecast or significant change
Winds: variable direction winds at 2 MPH (2 knots; 1.0 m/s)
Visibility: 6 or more miles (10+ km)
Clouds: clear skies
Weather: no significant weather forecast for this period
TAF Text: FM032200 29007KT P6SM SKC
Forecast period: 2200 UTC 03 September 2014 to 0000 UTC 04 September 2014
Forecast type: FROM: standard forecast or significant change
Winds: from the WNW (290 degrees) at 8 MPH (7 knots; 3.6 m/s)
Visibility: 6 or more miles (10+ km)
Clouds: clear skies
Weather: no significant weather forecast for this period

Find All Airport Services Find A Hotel Find A Rental Car Find A Golf Course Find A Restaurant $100 Hamburger



FBO's on the Field
FBO Company Facility Photos Services Transportation Aviation Fuel Prices: Prices include tax
Catering Weather Repair Courtesy Rental Type 100LL JetA JetA+ MOGAS 8087
 
Add another FBO Facility Photos Catering Weather Repair Courtesy Rental Type 100LL JetA JetA+ MOGAS 8087
Services Transportation Aviation Fuel Prices: Prices include tax
There are no FBO's currently reporting fuel at VIS. List your FBO now


GlobalAir.com Airport Resource Center model-print
model-print
model-print
model-print